Fernando Do Noronha, Fernando de Noronha Airport (SBFN)

NameFernando de Noronha Airport
CityFernando Do Noronha
CountryBrazil
ICAOSBFN
IATAFEN
Altitude58 m
CoordinatesGoogle Map
Live Air TrafficLiveATC.net
METARSBFN 171200Z 13014KT 9999 FEW015 29/23 Q1015
2019-10-17 12:00:00 Wind: East-Southeast (130°) 7.2 m/s - Visibility: > 10000 m - Temperature: 29 °C - Dew point: 23 °C - Humidity: 70.1% - Pressure: 1015 hPa
Statistics

The table below shows the detailed information of all flights to/from Fernando Do Noronha, Fernando de Noronha Airport (SBFN).